Wednesday, January 17, 2018, 11:24 AM GMT
Back to Local

CWDQ, La Tuque

Location: , , Canada Lat: 47.417
Local Time: 11:24 AM GMT (11:24 GMT) Lon: -72.8
Time Zone: GMT Elev: 554 ft

Show me the last for .
Show Decoded

2018-01-17 11:00 METAR CWDQ 171100Z AUTO 18001KT M21/M23 RMK AO1 SOG 30 6011 SLP286 T12111230 =
2018-01-17 10:00 METAR CWDQ 171000Z AUTO 16001KT M21/M23 RMK AO1 SOG 31 8008 SLP288 T12121231 =
2018-01-17 09:00 METAR CWDQ 170900Z AUTO 20001KT M22/M24 RMK AO1 SOG 31 8006 SLP289 T12161235 =
2018-01-17 08:00 METAR CWDQ 170800Z AUTO 13001KT M23/M24 RMK AO1 SOG 31 5002 SLP297 T12251244 =
2018-01-17 07:00 METAR CWDQ 170700Z AUTO 00000KT M27/M29 RMK AO1 SOG 30 6006 SLP297 T12651290 =
2018-01-17 06:00 METAR CWDQ 170600Z AUTO 00000KT M25/M28 RMK AO1 SOG 30 8006 SLP297 T12451277 =
2018-01-17 05:00 METAR CWDQ 170500Z AUTO 00000KT M25/M27 RMK AO1 SOG 30 7006 SLP301 T12501273 =
2018-01-17 04:00 METAR CWDQ 170400Z AUTO 00000KT M24/M26 RMK AO1 SOG 30 6005 SLP304 T12411261 =
2018-01-17 03:00 METAR CWDQ 170300Z AUTO 00000KT M23/M25 RMK AO1 SOG 30 7008 SLP304 T12331254 =
2018-01-17 02:00 METAR CWDQ 170200Z AUTO 12001KT M22/M24 RMK AO1 SOG 30 8005 SLP307 T12201239 =
2018-01-17 01:00 METAR CWDQ 170100Z AUTO 00000KT M20/M21 RMK AO1 SOG 30 8001 SLP309 T11981213 =
2018-01-17 00:00 METAR CWDQ 170000Z AUTO 12001KT M18/M19 RMK AO1 SOG 30 1002 SLP311 T11751188 =
2018-01-16 23:00 METAR CWDQ 162300Z AUTO 13001KT M16/M17 RMK AO1 SOG 30 3002 SLP311 T11621174 =
2018-01-16 22:00 METAR CWDQ 162200Z AUTO 18001KT M15/M17 RMK AO1 SOG 30 4000 SLP308 T11501168 =
2018-01-16 21:00 METAR CWDQ 162100Z AUTO 17002KT M13/M16 RMK AO1 SOG 30 6006 SLP308 T11311160 =
2018-01-16 20:00 METAR CWDQ 162000Z AUTO 19001KT M13/M17 RMK AO1 SOG 30 6013 SLP308 T11331167 =
2018-01-16 19:00 METAR CWDQ 161900Z AUTO 21001KT M14/M18 RMK AO1 SOG 30 6026 SLP308 T11381182 =
2018-01-16 18:00 METAR CWDQ 161800Z AUTO 00000KT M15/M20 RMK AO1 SOG 30 8026 SLP315 T11511195 =
2018-01-16 17:00 METAR CWDQ 161700Z AUTO 33002KT M17/M21 RMK AO1 SOG 30 8024 SLP323 T11711210 =
2018-01-16 16:00 METAR CWDQ 161600Z AUTO 34003KT M19/M23 RMK AO1 SOG 30 8009 SLP337 T11911230 =
2018-01-16 15:00 METAR CWDQ 161500Z AUTO 34004KT M21/M24 RMK AO1 SOG 30 8004 SLP344 T12071240 =
2018-01-16 14:00 METAR CWDQ 161400Z AUTO 34003KT M21/M25 RMK AO1 SOG 30 5003 SLP349 T12121246 =
2018-01-16 13:00 METAR CWDQ 161300Z AUTO 33002KT M23/M25 RMK AO1 SOG 30 7006 SLP348 T12261253 =
2018-01-16 12:00 METAR CWDQ 161200Z AUTO 35002KT M22/M25 RMK AO1 SOG 30 6014 SLP349 T12221250 =

Support USWX by starting your Amazon purchase here.